sensor_id;sensor_type;location;lat;lon;timestamp;P1;durP1;ratioP1;P2;durP2;ratioP2
57321;SDS011;43159;51.006;18.224;2023-05-16T00:03:46;32.40;;;8.40;;
57321;SDS011;43159;51.006;18.224;2023-05-16T00:13:28;22.00;;;9.30;;
57321;SDS011;43159;51.006;18.224;2023-05-16T00:30:30;21.70;;;9.90;;
57321;SDS011;43159;51.006;18.224;2023-05-16T00:40:13;22.00;;;7.80;;
57321;SDS011;43159;51.006;18.224;2023-05-16T00:49:56;24.60;;;7.50;;
57321;SDS011;43159;51.006;18.224;2023-05-16T00:59:39;13.50;;;6.50;;
57321;SDS011;43159;51.006;18.224;2023-05-16T01:09:22;15.10;;;7.70;;
57321;SDS011;43159;51.006;18.224;2023-05-16T01:29:25;14.30;;;7.40;;
57321;SDS011;43159;51.006;18.224;2023-05-16T01:39:16;12.80;;;6.00;;
57321;SDS011;43159;51.006;18.224;2023-05-16T01:59:28;15.40;;;7.10;;
57321;SDS011;43159;51.006;18.224;2023-05-16T02:09:11;13.00;;;6.00;;
57321;SDS011;43159;51.006;18.224;2023-05-16T02:18:54;14.20;;;6.50;;
57321;SDS011;43159;51.006;18.224;2023-05-16T02:28:36;13.10;;;6.30;;
57321;SDS011;43159;51.006;18.224;2023-05-16T02:38:18;13.40;;;7.20;;
57321;SDS011;43159;51.006;18.224;2023-05-16T02:48:02;12.80;;;4.90;;
57321;SDS011;43159;51.006;18.224;2023-05-16T02:57:45;13.80;;;7.00;;
57321;SDS011;43159;51.006;18.224;2023-05-16T03:07:30;16.40;;;6.90;;
57321;SDS011;43159;51.006;18.224;2023-05-16T03:17:12;13.50;;;6.70;;
57321;SDS011;43159;51.006;18.224;2023-05-16T03:26:54;18.40;;;6.10;;
57321;SDS011;43159;51.006;18.224;2023-05-16T03:36:38;18.50;;;8.60;;
57321;SDS011;43159;51.006;18.224;2023-05-16T03:46:20;16.10;;;9.00;;
57321;SDS011;43159;51.006;18.224;2023-05-16T03:56:02;25.60;;;10.20;;
57321;SDS011;43159;51.006;18.224;2023-05-16T04:05:45;12.60;;;6.50;;
57321;SDS011;43159;51.006;18.224;2023-05-16T04:15:27;19.40;;;9.20;;
57321;SDS011;43159;51.006;18.224;2023-05-16T04:25:10;11.10;;;5.50;;
57321;SDS011;43159;51.006;18.224;2023-05-16T04:34:54;16.70;;;8.90;;
57321;SDS011;43159;51.006;18.224;2023-05-16T04:44:37;14.90;;;7.40;;
57321;SDS011;43159;51.006;18.224;2023-05-16T04:54:19;12.40;;;5.80;;
57321;SDS011;43159;51.006;18.224;2023-05-16T05:04:01;12.20;;;6.40;;
57321;SDS011;43159;51.006;18.224;2023-05-16T05:13:44;8.80;;;3.60;;
57321;SDS011;43159;51.006;18.224;2023-05-16T05:23:26;9.80;;;5.50;;
57321;SDS011;43159;51.006;18.224;2023-05-16T05:33:09;9.60;;;4.40;;
57321;SDS011;43159;51.006;18.224;2023-05-16T05:42:52;9.10;;;4.50;;
57321;SDS011;43159;51.006;18.224;2023-05-16T05:52:38;11.90;;;6.70;;
57321;SDS011;43159;51.006;18.224;2023-05-16T06:09:39;14.00;;;5.90;;
57321;SDS011;43159;51.006;18.224;2023-05-16T06:19:22;10.30;;;5.60;;
57321;SDS011;43159;51.006;18.224;2023-05-16T06:29:04;13.00;;;6.00;;
57321;SDS011;43159;51.006;18.224;2023-05-16T06:38:46;15.00;;;5.30;;
57321;SDS011;43159;51.006;18.224;2023-05-16T06:48:30;13.40;;;6.60;;
57321;SDS011;43159;51.006;18.224;2023-05-16T06:58:12;10.50;;;5.50;;
57321;SDS011;43159;51.006;18.224;2023-05-16T07:07:54;12.10;;;5.90;;
57321;SDS011;43159;51.006;18.224;2023-05-16T07:17:37;12.60;;;5.10;;
57321;SDS011;43159;51.006;18.224;2023-05-16T07:27:21;8.60;;;3.90;;
57321;SDS011;43159;51.006;18.224;2023-05-16T07:37:04;15.50;;;5.60;;
57321;SDS011;43159;51.006;18.224;2023-05-16T07:54:04;11.10;;;4.70;;
57321;SDS011;43159;51.006;18.224;2023-05-16T08:03:46;12.90;;;4.10;;
57321;SDS011;43159;51.006;18.224;2023-05-16T08:13:30;11.20;;;5.40;;
57321;SDS011;43159;51.006;18.224;2023-05-16T08:23:13;8.60;;;3.60;;
57321;SDS011;43159;51.006;18.224;2023-05-16T08:32:55;9.10;;;4.00;;
57321;SDS011;43159;51.006;18.224;2023-05-16T08:42:38;8.20;;;2.90;;
57321;SDS011;43159;51.006;18.224;2023-05-16T08:52:25;10.00;;;3.20;;
57321;SDS011;43159;51.006;18.224;2023-05-16T09:02:12;25.60;;;12.00;;
57321;SDS011;43159;51.006;18.224;2023-05-16T09:11:54;7.80;;;3.10;;
57321;SDS011;43159;51.006;18.224;2023-05-16T09:21:47;8.00;;;3.00;;
57321;SDS011;43159;51.006;18.224;2023-05-16T09:31:36;8.30;;;3.20;;
57321;SDS011;43159;51.006;18.224;2023-05-16T09:41:21;8.80;;;3.30;;
57321;SDS011;43159;51.006;18.224;2023-05-16T09:51:11;5.30;;;2.20;;
57321;SDS011;43159;51.006;18.224;2023-05-16T10:00:58;2.20;;;1.60;;
57321;SDS011;43159;51.006;18.224;2023-05-16T10:10:45;7.60;;;1.40;;
57321;SDS011;43159;51.006;18.224;2023-05-16T10:20:29;6.60;;;2.40;;
57321;SDS011;43159;51.006;18.224;2023-05-16T10:30:12;12.40;;;2.80;;
57321;SDS011;43159;51.006;18.224;2023-05-16T10:39:55;7.10;;;2.90;;
57321;SDS011;43159;51.006;18.224;2023-05-16T10:49:44;6.30;;;2.10;;
57321;SDS011;43159;51.006;18.224;2023-05-16T10:59:43;7.50;;;2.70;;
57321;SDS011;43159;51.006;18.224;2023-05-16T11:10:01;8.60;;;3.10;;
57321;SDS011;43159;51.006;18.224;2023-05-16T11:20:23;7.60;;;2.70;;
57321;SDS011;43159;51.006;18.224;2023-05-16T11:30:31;2.20;;;1.40;;
57321;SDS011;43159;51.006;18.224;2023-05-16T11:40:14;8.10;;;2.30;;
57321;SDS011;43159;51.006;18.224;2023-05-16T11:50:10;4.80;;;2.00;;
57321;SDS011;43159;51.006;18.224;2023-05-16T12:00:04;7.20;;;2.80;;
57321;SDS011;43159;51.006;18.224;2023-05-16T12:09:53;4.10;;;1.40;;
57321;SDS011;43159;51.006;18.224;2023-05-16T12:19:35;7.90;;;2.80;;
57321;SDS011;43159;51.006;18.224;2023-05-16T12:29:21;9.20;;;2.60;;
57321;SDS011;43159;51.006;18.224;2023-05-16T12:39:10;7.90;;;2.40;;
57321;SDS011;43159;51.006;18.224;2023-05-16T12:49:01;7.20;;;2.30;;
57321;SDS011;43159;51.006;18.224;2023-05-16T12:58:49;7.90;;;2.90;;
57321;SDS011;43159;51.006;18.224;2023-05-16T13:08:33;2.20;;;1.60;;
57321;SDS011;43159;51.006;18.224;2023-05-16T13:18:15;5.80;;;2.40;;
57321;SDS011;43159;51.006;18.224;2023-05-16T13:27:58;11.20;;;3.20;;
57321;SDS011;43159;51.006;18.224;2023-05-16T13:37:42;6.80;;;1.50;;
57321;SDS011;43159;51.006;18.224;2023-05-16T13:47:27;5.90;;;2.40;;
57321;SDS011;43159;51.006;18.224;2023-05-16T13:57:09;8.20;;;2.50;;
57321;SDS011;43159;51.006;18.224;2023-05-16T14:06:51;5.60;;;2.20;;
57321;SDS011;43159;51.006;18.224;2023-05-16T14:16:33;8.00;;;2.90;;
57321;SDS011;43159;51.006;18.224;2023-05-16T14:26:16;8.00;;;2.60;;
57321;SDS011;43159;51.006;18.224;2023-05-16T14:36:05;8.20;;;3.30;;
57321;SDS011;43159;51.006;18.224;2023-05-16T14:45:48;8.40;;;3.10;;
57321;SDS011;43159;51.006;18.224;2023-05-16T14:55:30;8.90;;;2.60;;
57321;SDS011;43159;51.006;18.224;2023-05-16T15:05:13;12.80;;;3.00;;
57321;SDS011;43159;51.006;18.224;2023-05-16T15:14:56;6.70;;;3.10;;
57321;SDS011;43159;51.006;18.224;2023-05-16T15:24:42;7.40;;;2.80;;
57321;SDS011;43159;51.006;18.224;2023-05-16T15:34:27;9.50;;;3.70;;
57321;SDS011;43159;51.006;18.224;2023-05-16T15:44:10;9.00;;;3.30;;
57321;SDS011;43159;51.006;18.224;2023-05-16T15:53:53;12.40;;;2.50;;
57321;SDS011;43159;51.006;18.224;2023-05-16T16:03:36;5.30;;;2.10;;
57321;SDS011;43159;51.006;18.224;2023-05-16T16:13:18;10.20;;;4.90;;
57321;SDS011;43159;51.006;18.224;2023-05-16T16:23:03;9.70;;;5.00;;
57321;SDS011;43159;51.006;18.224;2023-05-16T16:32:45;8.20;;;3.50;;
57321;SDS011;43159;51.006;18.224;2023-05-16T16:42:31;11.00;;;5.60;;
57321;SDS011;43159;51.006;18.224;2023-05-16T16:52:14;19.30;;;5.60;;
57321;SDS011;43159;51.006;18.224;2023-05-16T17:01:56;12.20;;;6.30;;
57321;SDS011;43159;51.006;18.224;2023-05-16T17:11:42;11.30;;;4.70;;
57321;SDS011;43159;51.006;18.224;2023-05-16T17:21:36;13.00;;;6.40;;
57321;SDS011;43159;51.006;18.224;2023-05-16T17:31:23;10.90;;;5.50;;
57321;SDS011;43159;51.006;18.224;2023-05-16T17:41:05;17.30;;;7.30;;
57321;SDS011;43159;51.006;18.224;2023-05-16T17:50:48;9.40;;;4.40;;
57321;SDS011;43159;51.006;18.224;2023-05-16T18:00:31;15.60;;;6.50;;
57321;SDS011;43159;51.006;18.224;2023-05-16T18:10:14;17.00;;;12.70;;
57321;SDS011;43159;51.006;18.224;2023-05-16T18:27:15;32.50;;;20.60;;
57321;SDS011;43159;51.006;18.224;2023-05-16T18:36:58;26.50;;;18.40;;
57321;SDS011;43159;51.006;18.224;2023-05-16T18:46:42;33.50;;;22.10;;
57321;SDS011;43159;51.006;18.224;2023-05-16T18:56:28;32.60;;;20.40;;
57321;SDS011;43159;51.006;18.224;2023-05-16T19:06:14;34.10;;;20.60;;
57321;SDS011;43159;51.006;18.224;2023-05-16T19:15:59;27.60;;;16.20;;
57321;SDS011;43159;51.006;18.224;2023-05-16T19:25:41;31.80;;;19.80;;
57321;SDS011;43159;51.006;18.224;2023-05-16T19:35:28;26.20;;;16.70;;
57321;SDS011;43159;51.006;18.224;2023-05-16T19:45:11;26.90;;;15.70;;
57321;SDS011;43159;51.006;18.224;2023-05-16T19:54:54;36.40;;;21.80;;
57321;SDS011;43159;51.006;18.224;2023-05-16T20:04:36;34.10;;;21.40;;
57321;SDS011;43159;51.006;18.224;2023-05-16T20:14:18;28.60;;;19.50;;
57321;SDS011;43159;51.006;18.224;2023-05-16T20:24:00;34.50;;;21.50;;
57321;SDS011;43159;51.006;18.224;2023-05-16T20:33:42;35.50;;;24.00;;
57321;SDS011;43159;51.006;18.224;2023-05-16T20:43:25;29.40;;;16.90;;
57321;SDS011;43159;51.006;18.224;2023-05-16T20:53:07;35.10;;;21.40;;
57321;SDS011;43159;51.006;18.224;2023-05-16T21:02:49;28.60;;;18.80;;
57321;SDS011;43159;51.006;18.224;2023-05-16T21:12:32;30.50;;;17.40;;
57321;SDS011;43159;51.006;18.224;2023-05-16T21:22:15;14.80;;;8.60;;
57321;SDS011;43159;51.006;18.224;2023-05-16T21:31:57;27.90;;;16.90;;
57321;SDS011;43159;51.006;18.224;2023-05-16T21:41:39;36.40;;;19.40;;
57321;SDS011;43159;51.006;18.224;2023-05-16T21:51:21;32.00;;;19.00;;
57321;SDS011;43159;51.006;18.224;2023-05-16T22:01:03;30.00;;;20.60;;
57321;SDS011;43159;51.006;18.224;2023-05-16T22:08:22;45.70;;;30.50;;
57321;SDS011;43159;51.006;18.224;2023-05-16T22:18:04;23.00;;;15.00;;
57321;SDS011;43159;51.006;18.224;2023-05-16T22:27:46;32.30;;;16.90;;
57321;SDS011;43159;51.006;18.224;2023-05-16T22:37:28;27.00;;;14.10;;
57321;SDS011;43159;51.006;18.224;2023-05-16T22:47:12;20.00;;;11.50;;
57321;SDS011;43159;51.006;18.224;2023-05-16T22:56:54;19.70;;;11.90;;
57321;SDS011;43159;51.006;18.224;2023-05-16T23:06:37;24.90;;;10.90;;
57321;SDS011;43159;51.006;18.224;2023-05-16T23:16:21;31.10;;;10.80;;
57321;SDS011;43159;51.006;18.224;2023-05-16T23:26:02;21.00;;;12.40;;
57321;SDS011;43159;51.006;18.224;2023-05-16T23:35:44;29.50;;;14.40;;
57321;SDS011;43159;51.006;18.224;2023-05-16T23:45:26;24.50;;;13.40;;
57321;SDS011;43159;51.006;18.224;2023-05-16T23:55:10;28.40;;;14.20;;
